EIDL Airport Information

Runway Information
Runway 03 Length 4908 ft width 98 ft
Elevation 10 ft Threshold 656 ft Heading 20
Runway 21 Length 4908 ft Width 98 ft
Elevation 30 ft Threshold 656 ft Heading 200
Airport Frequencies
Type ATIS Name ATIS Frequency 129.925 MHZ
Type GND Name GND Frequency 129.8 MHZ
Type TWR Name TWR Frequency 129.8 MHZ
Airport Navaids
Type NDB Name Donegal Frequency 361 KHZ
Airport Weather Information & NOTAM
ADDS - METARS form results

(0820 UTC 23 October 2021)
Data provider http://aviationweather.gov/metar/data/
 
Forecast for: EIDL (DONEGAL ARPT , IE)
Text: TAF EIDL 230500Z 2306/2315 18020KT 9999 FEW015 BKN035
Forecast period: 0600 to 1500 UTC 23 October 2021
Forecast type: FROM: standard forecast or significant change
Winds: from the S (180 degrees) at 23 MPH (20 knots; 10.3 m/s)
Visibility: 6 or more miles (10+ km)
Ceiling: 3500 feet AGL
Clouds: few clouds at 1500 feet AGL
broken clouds at 3500 feet AGL
Weather: no significant weather forecast for this period
Text: TEMPO 2307/2315 19022G35KT 5000 -DZ BKN012
Forecast period: 0700 to 1500 UTC 23 October 2021
Forecast type: TEMPORARY: The following changes expected for less than half the time period
Winds: from the S (190 degrees) at 25 MPH (22 knots; 11.3 m/s)
gusting to 40 MPH (35 knots; 18.0 m/s)
Visibility: 3 miles (5 km)
Ceiling: 1200 feet AGL
Clouds: broken clouds at 1200 feet AGL
Weather: -DZ  (light drizzle)